createdAt,value
2022-08-12T00:02:04.184Z,27.80
2022-08-12T00:04:51.701Z,27.80
2022-08-12T00:07:37.735Z,27.80
2022-08-12T00:10:23.806Z,27.80
2022-08-12T00:13:09.837Z,27.70
2022-08-12T00:15:57.562Z,27.70
2022-08-12T00:18:43.147Z,27.70
2022-08-12T00:21:31.085Z,27.70
2022-08-12T00:24:18.184Z,27.70
2022-08-12T00:27:06.210Z,27.60
2022-08-12T00:29:53.214Z,27.60
2022-08-12T00:32:40.862Z,27.60
2022-08-12T00:35:36.890Z,27.60
2022-08-12T00:38:23.447Z,27.50
2022-08-12T00:41:09.526Z,27.60
2022-08-12T00:43:38.494Z,27.60
2022-08-12T00:46:24.248Z,27.60
2022-08-12T00:48:54.421Z,27.60
2022-08-12T00:51:23.160Z,27.70
2022-08-12T00:53:51.643Z,27.70
2022-08-12T00:56:21.246Z,27.60
2022-08-12T00:58:52.667Z,27.60
2022-08-12T01:01:21.667Z,27.60
2022-08-12T01:04:14.193Z,27.60
2022-08-12T01:07:01.244Z,27.60
2022-08-12T01:09:47.538Z,27.60
2022-08-12T01:12:15.988Z,27.60
2022-08-12T01:14:44.665Z,27.60
2022-08-12T01:17:13.328Z,27.70
2022-08-12T01:19:41.935Z,27.60
2022-08-12T01:22:25.286Z,27.60
2022-08-12T01:25:05.579Z,27.50
2022-08-12T01:27:35.479Z,27.50
2022-08-12T01:30:06.623Z,27.50
2022-08-12T01:32:37.601Z,27.50
2022-08-12T01:35:07.354Z,27.50
2022-08-12T01:37:38.341Z,27.50
2022-08-12T01:40:34.880Z,27.60
2022-08-12T01:43:07.206Z,27.70
2022-08-12T01:45:42.960Z,27.50
2022-08-12T01:48:20.527Z,27.40
2022-08-12T01:51:00.405Z,27.40
2022-08-12T01:53:50.177Z,27.40
2022-08-12T01:56:25.194Z,27.40
2022-08-12T01:59:13.800Z,27.40
2022-08-12T02:01:42.817Z,27.40
2022-08-12T02:04:31.609Z,27.40
2022-08-12T02:07:21.797Z,27.40
2022-08-12T02:10:50.058Z,27.40
2022-08-12T02:13:04.328Z,27.40
2022-08-12T02:15:35.852Z,27.40
2022-08-12T02:18:08.469Z,27.50
2022-08-12T02:20:52.390Z,27.50
2022-08-12T02:23:27.143Z,27.50
2022-08-12T02:26:00.545Z,27.50
2022-08-12T02:28:31.741Z,27.40
2022-08-12T02:31:05.430Z,27.30
2022-08-12T02:33:34.753Z,27.30
2022-08-12T02:36:04.731Z,27.30
2022-08-12T02:38:33.980Z,27.50
2022-08-12T02:41:05.366Z,27.40
2022-08-12T02:43:41.586Z,27.30
2022-08-12T02:46:15.100Z,27.20
2022-08-12T02:48:51.266Z,27.10
2022-08-12T02:51:23.691Z,27.10
2022-08-12T02:54:04.863Z,27.00
2022-08-12T02:56:40.685Z,27.00
2022-08-12T02:59:13.038Z,27.00
2022-08-12T03:01:48.434Z,27.20
2022-08-12T03:04:26.909Z,27.10
2022-08-12T03:07:05.816Z,27.00
2022-08-12T03:10:03.405Z,26.90
2022-08-12T03:12:34.150Z,27.00
2022-08-12T03:15:09.994Z,27.00
2022-08-12T03:17:47.923Z,27.00
2022-08-12T03:20:41.051Z,27.00
2022-08-12T03:23:11.696Z,27.00
2022-08-12T03:25:53.730Z,27.00
2022-08-12T03:28:38.041Z,27.00
2022-08-12T03:31:11.012Z,27.00
2022-08-12T03:33:45.691Z,27.10
2022-08-12T03:36:35.368Z,27.20
2022-08-12T03:39:37.024Z,27.20
2022-08-12T03:42:21.979Z,27.20
2022-08-12T03:45:15.558Z,27.20
2022-08-12T03:48:11.423Z,27.10
2022-08-12T03:51:06.377Z,27.10
2022-08-12T03:53:53.454Z,27.00
2022-08-12T03:56:39.954Z,26.90
2022-08-12T03:59:26.498Z,26.90
2022-08-12T04:01:57.675Z,26.90
2022-08-12T04:04:34.040Z,27.00
2022-08-12T04:07:03.931Z,26.90
2022-08-12T04:09:33.237Z,27.00
2022-08-12T04:12:19.213Z,27.00
2022-08-12T04:14:48.694Z,27.00
2022-08-12T04:17:17.941Z,26.90
2022-08-12T04:19:49.629Z,27.00
2022-08-12T04:22:18.432Z,27.00
2022-08-12T04:24:50.492Z,27.20
2022-08-12T04:27:19.309Z,27.30
2022-08-12T04:30:16.710Z,27.40
2022-08-12T04:32:40.824Z,27.20
2022-08-12T04:35:13.633Z,27.00
2022-08-12T04:37:58.330Z,26.90
2022-08-12T04:40:31.653Z,26.80
2022-08-12T04:43:02.292Z,26.80
2022-08-12T04:45:31.371Z,26.80
2022-08-12T04:47:59.814Z,26.80
2022-08-12T04:50:34.717Z,26.80
2022-08-12T04:53:08.313Z,26.90
2022-08-12T04:55:38.602Z,26.80
2022-08-12T04:58:07.055Z,26.80
2022-08-12T05:00:35.998Z,26.90
2022-08-12T05:03:05.503Z,26.90
2022-08-12T05:05:36.458Z,26.90
2022-08-12T05:08:07.937Z,27.00
2022-08-12T05:10:36.505Z,27.00
2022-08-12T05:13:07.120Z,27.00
2022-08-12T05:15:36.250Z,27.10
2022-08-12T05:18:19.276Z,27.10
2022-08-12T05:20:50.522Z,27.10
2022-08-12T05:23:20.163Z,27.10
2022-08-12T05:25:49.375Z,27.10
2022-08-12T05:28:18.234Z,27.20
2022-08-12T05:30:48.128Z,27.20
2022-08-12T05:33:16.684Z,27.20
2022-08-12T05:35:46.063Z,27.20
2022-08-12T05:38:34.407Z,27.30
2022-08-12T05:41:04.043Z,27.30
2022-08-12T05:43:34.353Z,27.30
2022-08-12T05:46:02.773Z,27.20
2022-08-12T05:48:32.585Z,27.10
2022-08-12T05:51:00.998Z,27.20
2022-08-12T05:53:30.887Z,27.10
2022-08-12T05:55:59.401Z,27.20
2022-08-12T05:58:28.419Z,27.20
2022-08-12T06:00:58.020Z,27.20
2022-08-12T06:03:27.504Z,27.20
2022-08-12T06:05:57.215Z,27.30
2022-08-12T06:08:26.087Z,27.20
2022-08-12T06:10:57.253Z,27.20
2022-08-12T06:13:52.546Z,27.20
2022-08-12T06:16:14.486Z,27.20
2022-08-12T06:18:43.337Z,27.20
2022-08-12T06:21:12.744Z,27.30
2022-08-12T06:23:42.842Z,27.30
2022-08-12T06:26:16.610Z,27.30
2022-08-12T06:28:45.220Z,27.30
2022-08-12T06:31:26.881Z,27.20
2022-08-12T06:35:19.268Z,27.20
2022-08-12T06:36:49.751Z,27.20
2022-08-12T06:39:29.568Z,27.20
2022-08-12T06:42:32.803Z,27.20
2022-08-12T06:45:02.270Z,27.20
2022-08-12T06:47:32.691Z,27.30
2022-08-12T06:50:01.426Z,27.30
2022-08-12T06:52:32.332Z,27.30
2022-08-12T06:55:01.074Z,27.40
2022-08-12T06:58:05.549Z,27.40
2022-08-12T07:00:22.615Z,27.40
2022-08-12T07:02:59.710Z,27.40
2022-08-12T07:05:45.118Z,27.50
2022-08-12T07:08:14.015Z,27.50
2022-08-12T07:10:44.017Z,27.50
2022-08-12T07:13:13.922Z,27.50
2022-08-12T07:15:44.002Z,27.50
2022-08-12T07:18:15.969Z,27.60
2022-08-12T07:20:53.394Z,27.60
2022-08-12T07:23:22.069Z,27.70
2022-08-12T07:25:53.101Z,27.60
2022-08-12T07:28:28.306Z,27.70
2022-08-12T07:30:57.549Z,27.80
2022-08-12T07:33:28.148Z,27.80
2022-08-12T07:35:57.559Z,27.90
2022-08-12T07:38:28.795Z,27.90
2022-08-12T07:40:59.897Z,27.90
2022-08-12T07:43:30.168Z,28.00
2022-08-12T07:45:58.675Z,28.00
2022-08-12T07:48:28.002Z,27.90
2022-08-12T07:50:56.457Z,27.90
2022-08-12T07:53:24.797Z,27.80
2022-08-12T07:55:53.244Z,27.80
2022-08-12T07:58:22.122Z,27.80
2022-08-12T08:00:53.205Z,28.10
2022-08-12T08:03:21.704Z,28.20
2022-08-12T08:05:50.109Z,28.10
2022-08-12T08:08:19.334Z,28.40
2022-08-12T08:10:48.039Z,28.50
2022-08-12T08:13:16.571Z,28.60
2022-08-12T08:16:02.515Z,28.60
2022-08-12T08:18:33.245Z,28.60
2022-08-12T08:21:01.821Z,28.70
2022-08-12T08:23:46.322Z,28.70
2022-08-12T08:26:16.111Z,28.70
2022-08-12T08:28:44.909Z,28.80
2022-08-12T08:31:14.403Z,28.70
2022-08-12T08:34:09.533Z,28.70
2022-08-12T08:36:32.597Z,28.60
2022-08-12T08:39:01.073Z,28.60
2022-08-12T08:42:16.364Z,28.70
2022-08-12T08:44:36.470Z,28.90
2022-08-12T08:47:05.677Z,29.00
2022-08-12T08:49:37.398Z,29.00
2022-08-12T08:52:06.623Z,29.10
2022-08-12T08:54:35.177Z,29.10
2022-08-12T08:57:04.459Z,29.00
2022-08-12T08:59:32.870Z,28.90
2022-08-12T09:02:02.582Z,28.80
2022-08-12T09:05:11.191Z,28.80
2022-08-12T09:13:23.223Z,28.60
2022-08-12T09:18:41.281Z,28.70
2022-08-12T09:21:09.854Z,28.70
2022-08-12T09:24:00.312Z,28.50
2022-08-12T09:26:28.986Z,28.40
2022-08-12T09:28:57.766Z,28.30
2022-08-12T09:32:04.157Z,28.40
2022-08-12T09:34:25.292Z,28.40
2022-08-12T09:37:01.651Z,28.40
2022-08-12T09:40:06.242Z,28.30
2022-08-12T09:42:43.968Z,28.20
2022-08-12T09:45:23.199Z,28.10
2022-08-12T09:47:59.946Z,28.10
2022-08-12T09:50:28.795Z,28.10
2022-08-12T09:53:15.018Z,28.30
2022-08-12T09:56:05.797Z,28.20
2022-08-12T09:58:59.088Z,28.10
2022-08-12T10:01:34.651Z,28.20
2022-08-12T10:04:06.006Z,28.30
2022-08-12T10:06:36.208Z,28.30
2022-08-12T10:09:06.825Z,28.40
2022-08-12T10:12:11.694Z,28.40
2022-08-12T10:14:50.070Z,28.20
2022-08-12T10:17:29.519Z,28.20
2022-08-12T10:19:59.657Z,28.20
2022-08-12T10:22:49.299Z,28.10
2022-08-12T10:26:35.054Z,28.10
2022-08-12T10:28:38.458Z,28.10
2022-08-12T10:31:16.094Z,28.10
2022-08-12T10:34:05.109Z,28.00
2022-08-12T10:36:40.104Z,28.00
2022-08-12T10:39:44.252Z,28.00
2022-08-12T10:42:29.437Z,28.10
2022-08-12T10:45:02.010Z,28.00
2022-08-12T10:48:20.686Z,28.00
2022-08-12T10:50:28.359Z,27.90
2022-08-12T10:53:11.626Z,28.00
2022-08-12T10:55:55.493Z,28.10
2022-08-12T10:58:28.252Z,28.10
2022-08-12T11:01:49.880Z,27.90
2022-08-12T11:04:26.256Z,27.90
2022-08-12T11:07:08.462Z,27.90
2022-08-12T11:09:51.278Z,27.90
2022-08-12T11:12:55.830Z,27.90
2022-08-12T11:15:20.897Z,27.90
2022-08-12T11:17:55.749Z,28.00
2022-08-12T11:20:28.984Z,28.10
2022-08-12T11:23:00.007Z,28.00
2022-08-12T11:25:55.548Z,28.10
2022-08-12T11:28:34.049Z,28.10
2022-08-12T11:31:04.223Z,28.10
2022-08-12T11:34:04.238Z,28.00
2022-08-12T11:36:22.668Z,27.90
2022-08-12T11:38:51.461Z,28.00
2022-08-12T11:41:31.822Z,28.20
2022-08-12T11:44:12.636Z,28.20
2022-08-12T11:46:51.430Z,28.10
2022-08-12T11:49:31.263Z,28.00
2022-08-12T11:52:00.959Z,28.10
2022-08-12T11:54:30.306Z,27.90
2022-08-12T11:56:59.896Z,27.90
2022-08-12T12:08:36.118Z,27.90
2022-08-12T12:10:13.269Z,28.00
2022-08-12T12:20:26.011Z,28.00
2022-08-12T12:22:57.730Z,28.10
2022-08-12T12:28:35.299Z,28.10
2022-08-12T12:31:04.142Z,28.30
2022-08-12T12:33:56.912Z,28.30
2022-08-12T12:36:29.832Z,28.10
2022-08-12T12:39:00.614Z,28.00
2022-08-12T12:42:47.638Z,28.10
2022-08-12T12:44:25.989Z,28.30
2022-08-12T12:46:59.035Z,28.10
2022-08-12T12:49:29.462Z,28.10
2022-08-12T12:52:18.450Z,28.00
2022-08-12T12:54:52.950Z,28.00
2022-08-12T12:57:36.427Z,27.90
2022-08-12T13:00:16.692Z,28.10
2022-08-12T13:02:53.584Z,28.10
2022-08-12T13:05:28.064Z,28.20
2022-08-12T13:08:00.992Z,28.30
2022-08-12T13:10:36.708Z,28.10
2022-08-12T13:14:10.204Z,27.90
2022-08-12T13:16:02.031Z,27.80
2022-08-12T13:18:31.594Z,27.80
2022-08-12T13:21:00.084Z,27.90
2022-08-12T13:23:35.867Z,28.00
2022-08-12T13:26:14.371Z,27.80
2022-08-12T13:28:53.091Z,27.70
2022-08-12T13:31:25.066Z,27.50
2022-08-12T13:34:32.349Z,27.50
2022-08-12T13:36:45.352Z,27.70
2022-08-12T13:39:16.443Z,27.60
2022-08-12T13:41:46.502Z,27.70
2022-08-12T13:44:18.285Z,27.70
2022-08-12T13:46:58.822Z,27.70
2022-08-12T13:49:53.764Z,27.60
2022-08-12T13:52:18.538Z,27.50
2022-08-12T13:54:56.301Z,27.60
2022-08-12T13:57:44.559Z,27.70
2022-08-12T14:00:16.681Z,27.60
2022-08-12T14:02:45.182Z,27.50
2022-08-12T14:05:27.535Z,27.40
2022-08-12T14:08:03.649Z,27.40
2022-08-12T14:10:39.297Z,27.40
2022-08-12T14:14:03.523Z,27.20
2022-08-12T14:16:14.558Z,27.20
2022-08-12T14:18:45.591Z,27.20
2022-08-12T14:21:18.118Z,27.20
2022-08-12T14:24:05.541Z,27.40
2022-08-12T14:26:38.989Z,27.40
2022-08-12T14:29:09.620Z,27.50
2022-08-12T14:31:42.969Z,27.50
2022-08-12T14:34:11.644Z,27.50
2022-08-12T14:36:41.133Z,27.50
2022-08-12T14:39:10.852Z,27.50
2022-08-12T14:41:48.351Z,27.50
2022-08-12T14:44:58.737Z,27.40
2022-08-12T14:47:08.826Z,27.30
2022-08-12T14:50:33.640Z,27.30
2022-08-12T14:53:33.391Z,27.20
2022-08-12T14:58:03.563Z,27.10
2022-08-12T15:00:52.675Z,27.30
2022-08-12T15:03:46.700Z,27.00
2022-08-12T15:06:44.321Z,26.80
2022-08-12T15:09:08.298Z,26.40
2022-08-12T15:11:54.418Z,26.20
2022-08-12T15:14:25.623Z,26.30
2022-08-12T15:16:55.638Z,26.40
2022-08-12T15:20:28.700Z,26.30
2022-08-12T15:22:36.869Z,26.40
2022-08-12T15:25:08.048Z,26.20
2022-08-12T15:28:05.145Z,26.10
2022-08-12T15:30:32.235Z,26.00
2022-08-12T15:33:14.906Z,25.70
2022-08-12T15:35:51.996Z,25.60
2022-08-12T15:38:25.327Z,25.50
2022-08-12T15:40:54.655Z,25.60
2022-08-12T15:43:35.447Z,25.50
2022-08-12T15:46:15.170Z,25.50
2022-08-12T15:48:47.474Z,25.10
2022-08-12T15:51:59.385Z,25.30
2022-08-12T15:54:34.369Z,25.20
2022-08-12T15:57:07.835Z,24.90
2022-08-12T16:00:04.465Z,25.00
2022-08-12T16:02:29.835Z,25.10
2022-08-12T16:05:00.126Z,25.00
2022-08-12T16:07:32.872Z,25.00
2022-08-12T16:10:08.282Z,25.20
2022-08-12T16:12:54.441Z,25.50
2022-08-12T16:15:25.018Z,25.70
2022-08-12T16:18:15.271Z,25.90
2022-08-12T16:20:46.975Z,26.20
2022-08-12T16:23:35.824Z,26.40
2022-08-12T16:26:15.111Z,26.70
2022-08-12T16:28:47.501Z,26.90
2022-08-12T16:31:23.654Z,26.90
2022-08-12T16:33:59.048Z,26.90
2022-08-12T16:36:31.016Z,27.00
2022-08-12T16:39:01.585Z,27.10
2022-08-12T16:41:38.251Z,27.10
2022-08-12T16:44:09.120Z,27.20
2022-08-12T16:46:38.100Z,27.20
2022-08-12T16:49:12.984Z,27.20
2022-08-12T16:51:46.434Z,27.20
2022-08-12T16:54:16.911Z,27.20
2022-08-12T16:56:54.448Z,27.20
2022-08-12T16:59:24.139Z,27.20
2022-08-12T17:01:52.727Z,27.30
2022-08-12T17:04:24.138Z,27.30
2022-08-12T17:06:54.388Z,27.30
2022-08-12T17:09:23.100Z,27.20
2022-08-12T17:11:52.822Z,27.20
2022-08-12T17:14:23.485Z,27.10
2022-08-12T17:16:55.078Z,27.10
2022-08-12T17:20:28.588Z,27.10
2022-08-12T17:22:16.862Z,27.20
2022-08-12T17:24:54.761Z,27.10
2022-08-12T17:27:25.600Z,27.00
2022-08-12T17:30:00.638Z,27.00
2022-08-12T17:32:31.419Z,27.20
2022-08-12T17:35:18.878Z,27.40
2022-08-12T17:37:50.808Z,27.40
2022-08-12T17:40:35.649Z,27.20
2022-08-12T17:43:54.854Z,27.10
2022-08-12T17:45:58.899Z,27.00
2022-08-12T17:48:34.751Z,27.00
2022-08-12T17:51:15.610Z,27.00
2022-08-12T17:54:11.256Z,27.00
2022-08-12T17:56:37.453Z,27.00
2022-08-12T17:59:07.558Z,26.90
2022-08-12T18:01:36.722Z,27.00
2022-08-12T18:04:21.348Z,26.90
2022-08-12T18:06:51.725Z,27.00
2022-08-12T18:09:24.657Z,27.10
2022-08-12T18:12:24.292Z,27.00
2022-08-12T18:14:56.555Z,27.00
2022-08-12T18:17:27.517Z,27.00
2022-08-12T18:20:07.076Z,27.00
2022-08-12T18:22:38.607Z,27.10
2022-08-12T18:26:14.631Z,27.10
2022-08-12T18:28:15.691Z,27.10
2022-08-12T18:30:53.351Z,27.20
2022-08-12T18:33:25.829Z,27.20
2022-08-12T18:35:57.138Z,27.20
2022-08-12T18:38:27.923Z,27.10
2022-08-12T18:41:21.777Z,27.00
2022-08-12T18:43:59.754Z,27.00
2022-08-12T18:46:38.864Z,26.90
2022-08-12T18:49:18.408Z,27.00
2022-08-12T18:51:55.535Z,27.00
2022-08-12T18:54:32.361Z,26.90
2022-08-12T18:57:16.166Z,26.90
2022-08-12T19:00:02.576Z,26.90
2022-08-12T19:02:40.445Z,26.90
2022-08-12T19:05:11.070Z,26.90
2022-08-12T19:07:59.921Z,26.90
2022-08-12T19:10:30.808Z,26.90
2022-08-12T19:13:23.835Z,26.90
2022-08-12T19:15:54.652Z,26.80
2022-08-12T19:18:30.044Z,26.90
2022-08-12T19:21:00.485Z,26.90
2022-08-12T19:23:40.948Z,26.90
2022-08-12T19:26:12.386Z,26.90
2022-08-12T19:28:42.966Z,26.90
2022-08-12T19:31:56.328Z,26.80
2022-08-12T19:35:07.067Z,26.80
2022-08-12T19:37:17.290Z,26.80
2022-08-12T19:40:08.695Z,26.80
2022-08-12T19:42:37.916Z,26.80
2022-08-12T19:45:14.804Z,26.90
2022-08-12T19:47:46.029Z,26.80
2022-08-12T19:50:20.275Z,26.90
2022-08-12T19:52:53.058Z,26.80
2022-08-12T19:55:23.601Z,26.80
2022-08-12T19:58:01.893Z,26.70
2022-08-12T20:00:35.228Z,26.70
2022-08-12T20:03:04.675Z,26.70
2022-08-12T20:06:04.594Z,26.70
2022-08-12T20:08:34.159Z,26.80
2022-08-12T20:12:13.518Z,26.70
2022-08-12T20:14:00.545Z,26.40
2022-08-12T20:16:57.384Z,26.10
2022-08-12T20:19:52.963Z,25.80
2022-08-12T20:22:23.482Z,25.60
2022-08-12T20:25:07.349Z,25.50
2022-08-12T20:28:03.470Z,25.40
2022-08-12T20:30:37.433Z,25.30
2022-08-12T20:33:18.807Z,25.20
2022-08-12T20:36:14.371Z,25.20
2022-08-12T20:38:46.045Z,25.10
2022-08-12T20:41:18.979Z,25.00
2022-08-12T20:43:51.997Z,24.90
2022-08-12T20:46:21.642Z,24.80
2022-08-12T20:48:55.164Z,24.80
2022-08-12T20:51:28.222Z,24.80
2022-08-12T20:54:18.517Z,24.80
2022-08-12T20:56:48.505Z,24.80
2022-08-12T20:59:19.735Z,24.80
2022-08-12T21:01:49.440Z,24.80
2022-08-12T21:04:43.840Z,24.80
2022-08-12T21:07:14.367Z,24.80
2022-08-12T21:09:47.259Z,24.70
2022-08-12T21:12:28.021Z,24.60
2022-08-12T21:15:24.396Z,24.50
2022-08-12T21:18:09.297Z,24.60
2022-08-12T21:20:42.206Z,24.60
2022-08-12T21:23:13.858Z,24.60
2022-08-12T21:25:45.157Z,24.60
2022-08-12T21:28:15.373Z,24.60
2022-08-12T21:31:11.063Z,24.60
2022-08-12T21:33:58.706Z,24.60
2022-08-12T21:36:34.361Z,24.60
2022-08-12T21:39:20.674Z,24.60
2022-08-12T21:41:52.154Z,24.60
2022-08-12T21:44:32.470Z,24.60
2022-08-12T21:47:21.092Z,24.60
2022-08-12T21:50:02.284Z,24.80
2022-08-12T21:52:40.495Z,24.80
2022-08-12T21:55:18.682Z,24.70
2022-08-12T21:57:53.662Z,24.60
2022-08-12T22:00:33.425Z,24.60
2022-08-12T22:04:01.409Z,24.60
2022-08-12T22:06:31.481Z,24.50
2022-08-12T22:09:17.233Z,24.40
2022-08-12T22:11:56.643Z,24.50
2022-08-12T22:14:28.834Z,24.40
2022-08-12T22:16:58.117Z,24.30
2022-08-12T22:19:26.947Z,24.40
2022-08-12T22:21:58.457Z,24.30
2022-08-12T22:24:30.162Z,24.20
2022-08-12T22:27:07.988Z,24.10
2022-08-12T22:30:23.354Z,24.10
2022-08-12T22:32:54.801Z,24.00
2022-08-12T22:35:56.102Z,24.00
2022-08-12T22:38:26.063Z,24.00
2022-08-12T22:41:00.818Z,23.90
2022-08-12T22:44:01.157Z,23.80
2022-08-12T22:46:52.676Z,23.90
2022-08-12T22:49:36.435Z,23.90
2022-08-12T22:52:08.336Z,23.90
2022-08-12T22:54:37.839Z,23.90
2022-08-12T22:57:23.562Z,23.90
2022-08-12T22:59:56.230Z,23.90
2022-08-12T23:02:29.098Z,24.00
2022-08-12T23:04:58.574Z,24.00
2022-08-12T23:07:27.089Z,24.10
2022-08-12T23:10:05.108Z,24.00
2022-08-12T23:12:55.159Z,24.00
2022-08-12T23:15:27.033Z,24.00
2022-08-12T23:17:58.198Z,23.90
2022-08-12T23:20:27.590Z,23.90
2022-08-12T23:23:02.925Z,23.80
2022-08-12T23:25:54.375Z,23.90
2022-08-12T23:28:42.775Z,23.80
2022-08-12T23:31:11.375Z,23.90
2022-08-12T23:34:01.943Z,23.90
2022-08-12T23:36:39.491Z,23.90
2022-08-12T23:40:06.705Z,23.90
2022-08-12T23:42:17.624Z,24.00
2022-08-12T23:44:52.573Z,24.10
2022-08-12T23:47:22.690Z,24.10
2022-08-12T23:49:56.286Z,24.10
2022-08-12T23:52:46.651Z,24.10
2022-08-12T23:55:24.610Z,24.00
2022-08-12T23:58:22.993Z,23.90
